createdAt,value
2022-11-13T00:01:16.237Z,15.40
2022-11-13T00:03:43.270Z,15.88
2022-11-13T00:06:12.013Z,18.40
2022-11-13T00:08:38.824Z,15.45
2022-11-13T00:11:10.386Z,17.67
2022-11-13T00:13:37.324Z,17.25
2022-11-13T00:16:06.842Z,18.15
2022-11-13T00:18:37.451Z,27.33
2022-11-13T00:21:09.136Z,19.83
2022-11-13T00:23:37.096Z,17.80
2022-11-13T00:26:09.460Z,18.70
2022-11-13T00:28:36.810Z,19.10
2022-11-13T00:31:06.419Z,18.52
2022-11-13T00:34:26.031Z,15.70
2022-11-13T00:36:37.154Z,19.17
2022-11-13T00:39:04.203Z,20.75
2022-11-13T00:41:30.972Z,14.70
2022-11-13T00:43:57.710Z,15.65
2022-11-13T00:46:24.504Z,17.85
2022-11-13T00:48:51.266Z,18.35
2022-11-13T00:51:19.645Z,18.27
2022-11-13T00:53:46.713Z,18.92
2022-11-13T00:56:40.495Z,20.98
2022-11-13T00:59:07.369Z,17.60
2022-11-13T01:01:34.339Z,21.70
2022-11-13T01:04:01.127Z,17.27
2022-11-13T01:06:28.875Z,18.73
2022-11-13T01:08:57.850Z,20.02
2022-11-13T01:11:26.668Z,16.90
2022-11-13T01:13:53.894Z,16.15
2022-11-13T01:16:24.673Z,16.30
2022-11-13T01:18:53.507Z,18.58
2022-11-13T01:21:23.397Z,19.13
2022-11-13T01:23:50.362Z,19.52
2022-11-13T01:26:23.467Z,18.52
2022-11-13T01:28:50.241Z,22.35
2022-11-13T01:31:24.685Z,20.63
2022-11-13T01:33:51.909Z,25.33
2022-11-13T01:36:29.463Z,19.05
2022-11-13T01:38:57.024Z,17.88
2022-11-13T01:41:25.736Z,18.73
2022-11-13T01:43:54.545Z,20.77
2022-11-13T01:46:47.853Z,23.95
2022-11-13T01:49:23.187Z,22.33
2022-11-13T01:52:04.487Z,18.10
2022-11-13T01:54:39.002Z,20.02
2022-11-13T01:57:07.183Z,19.15
2022-11-13T01:59:40.100Z,19.77
2022-11-13T02:02:07.424Z,21.27
2022-11-13T02:04:34.868Z,21.40
2022-11-13T02:07:14.355Z,19.55
2022-11-13T02:09:44.934Z,19.77
2022-11-13T02:12:14.405Z,19.23
2022-11-13T02:14:46.055Z,19.33
2022-11-13T02:17:23.165Z,21.58
2022-11-13T02:19:54.231Z,25.33
2022-11-13T02:23:09.578Z,18.70
2022-11-13T02:25:37.822Z,20.08
2022-11-13T02:28:04.581Z,21.08
2022-11-13T02:30:34.243Z,18.33
2022-11-13T02:33:01.562Z,20.40
2022-11-13T02:35:35.391Z,20.88
2022-11-13T02:38:04.722Z,20.88
2022-11-13T02:40:33.170Z,19.95
2022-11-13T02:43:00.178Z,19.80
2022-11-13T02:45:26.990Z,21.70
2022-11-13T02:47:53.753Z,20.85
2022-11-13T02:50:20.637Z,20.38
2022-11-13T02:52:47.580Z,25.83
2022-11-13T02:55:15.302Z,19.98
2022-11-13T02:57:42.030Z,20.85
2022-11-13T03:00:13.768Z,21.33
2022-11-13T03:02:41.290Z,17.48
2022-11-13T03:05:13.231Z,19.17
2022-11-13T03:10:09.452Z,22.55
2022-11-13T03:12:36.446Z,19.13
2022-11-13T03:15:04.105Z,18.35
2022-11-13T03:17:44.097Z,21.10
2022-11-13T03:20:10.881Z,21.73
2022-11-13T03:22:37.774Z,20.05
2022-11-13T03:25:10.215Z,23.55
2022-11-13T03:27:37.709Z,22.00
2022-11-13T03:30:05.628Z,18.50
2022-11-13T03:32:32.364Z,19.70
2022-11-13T03:34:59.148Z,21.73
2022-11-13T03:37:25.916Z,20.10
2022-11-13T03:39:52.678Z,21.40
2022-11-13T03:42:19.931Z,27.27
2022-11-13T03:44:46.712Z,27.08
2022-11-13T03:47:13.593Z,19.45
2022-11-13T03:49:40.344Z,25.77
2022-11-13T03:52:07.239Z,19.60
2022-11-13T03:54:33.994Z,21.33
2022-11-13T03:57:00.788Z,27.15
2022-11-13T03:59:27.509Z,20.25
2022-11-13T04:01:54.315Z,21.05
2022-11-13T04:04:21.152Z,20.00
2022-11-13T04:06:47.943Z,19.73
2022-11-13T04:09:14.932Z,19.20
2022-11-13T04:11:41.658Z,18.73
2022-11-13T04:14:08.360Z,18.60
2022-11-13T04:16:50.360Z,17.38
2022-11-13T04:19:17.048Z,19.38
2022-11-13T04:21:43.788Z,22.90
2022-11-13T04:24:10.647Z,18.48
2022-11-13T04:26:37.381Z,24.75
2022-11-13T04:29:04.082Z,18.40
2022-11-13T04:31:30.794Z,18.27
2022-11-13T04:33:57.533Z,22.90
2022-11-13T04:36:24.263Z,18.30
2022-11-13T04:38:51.044Z,22.33
2022-11-13T04:41:36.273Z,19.27
2022-11-13T04:44:02.999Z,21.85
2022-11-13T04:46:29.659Z,20.05
2022-11-13T04:48:56.376Z,24.23
2022-11-13T04:51:23.160Z,20.98
2022-11-13T04:53:49.885Z,18.02
2022-11-13T04:56:16.596Z,21.92
2022-11-13T04:58:43.332Z,22.17
2022-11-13T05:01:10.132Z,22.67
2022-11-13T05:03:38.079Z,20.98
2022-11-13T05:06:13.066Z,21.58
2022-11-13T05:08:39.771Z,20.98
2022-11-13T05:11:06.626Z,23.10
2022-11-13T05:13:34.887Z,24.38
2022-11-13T05:16:07.008Z,21.42
2022-11-13T05:18:35.228Z,22.85
2022-11-13T05:21:02.196Z,21.02
2022-11-13T05:23:29.064Z,22.33
2022-11-13T05:26:06.983Z,21.77
2022-11-13T05:28:34.177Z,25.10
2022-11-13T05:31:12.721Z,24.02
2022-11-13T05:33:41.204Z,22.92
2022-11-13T05:36:16.749Z,23.20
2022-11-13T05:38:43.790Z,23.25
2022-11-13T05:41:16.122Z,27.00
2022-11-13T05:43:43.361Z,22.80
2022-11-13T05:46:13.202Z,25.08
2022-11-13T05:48:40.759Z,22.60
2022-11-13T05:51:13.321Z,25.48
2022-11-13T05:56:11.045Z,23.20
2022-11-13T05:58:38.047Z,24.33
2022-11-13T06:01:31.931Z,23.65
2022-11-13T06:04:00.701Z,21.38
2022-11-13T06:06:29.465Z,23.48
2022-11-13T06:08:57.481Z,22.95
2022-11-13T06:11:28.149Z,20.20
2022-11-13T06:13:55.961Z,20.88
2022-11-13T06:16:34.004Z,21.83
2022-11-13T06:19:02.419Z,26.02
2022-11-13T06:25:36.315Z,23.13
2022-11-13T06:30:30.150Z,23.50
2022-11-13T06:32:59.952Z,22.20
2022-11-13T06:35:27.307Z,24.48
2022-11-13T06:37:57.221Z,22.73
2022-11-13T06:40:23.996Z,23.08
2022-11-13T06:42:51.324Z,25.08
2022-11-13T06:45:18.096Z,25.15
2022-11-13T06:47:44.967Z,24.17
2022-11-13T06:50:11.809Z,28.25
2022-11-13T06:52:38.583Z,27.25
2022-11-13T06:55:05.585Z,25.35
2022-11-13T06:57:32.718Z,26.50
2022-11-13T07:00:00.142Z,24.33
2022-11-13T07:02:26.970Z,24.90
2022-11-13T07:04:53.733Z,24.73
2022-11-13T07:07:20.504Z,25.92
2022-11-13T07:09:47.328Z,23.98
2022-11-13T07:12:14.097Z,24.05
2022-11-13T07:14:40.913Z,23.42
2022-11-13T07:17:10.357Z,25.52
2022-11-13T07:19:37.438Z,29.48
2022-11-13T07:22:04.187Z,27.63
2022-11-13T07:24:30.942Z,32.75
2022-11-13T07:26:57.866Z,29.80
2022-11-13T07:29:24.663Z,25.40
2022-11-13T07:31:51.445Z,24.73
2022-11-13T07:34:18.206Z,25.08
2022-11-13T07:36:45.112Z,27.90
2022-11-13T07:39:12.415Z,27.02
2022-11-13T07:41:39.176Z,27.50
2022-11-13T07:44:09.130Z,26.83
2022-11-13T07:46:36.533Z,28.25
2022-11-13T07:49:03.380Z,32.53
2022-11-13T07:51:30.139Z,27.98
2022-11-13T07:53:57.180Z,30.33
2022-11-13T07:56:25.432Z,42.47
2022-11-13T07:58:52.138Z,54.50
2022-11-13T08:01:18.929Z,48.38
2022-11-13T08:03:45.718Z,39.33
2022-11-13T08:14:30.255Z,57.95
2022-11-13T08:16:56.981Z,42.30
2022-11-13T08:19:23.732Z,47.80
2022-11-13T08:21:50.465Z,36.08
2022-11-13T08:24:17.891Z,58.65
2022-11-13T08:26:44.862Z,40.92
2022-11-13T08:29:11.630Z,50.92
2022-11-13T08:31:38.374Z,31.02
2022-11-13T08:34:05.142Z,40.83
2022-11-13T08:36:31.927Z,40.85
2022-11-13T08:38:58.739Z,47.67
2022-11-13T08:41:25.497Z,33.47
2022-11-13T08:43:52.266Z,36.25
2022-11-13T08:46:19.023Z,44.25
2022-11-13T08:48:45.818Z,39.13
2022-11-13T08:51:12.575Z,39.80
2022-11-13T08:53:39.933Z,43.60
2022-11-13T08:56:07.762Z,44.10
2022-11-13T08:58:34.509Z,39.47
2022-11-13T09:01:02.542Z,44.88
2022-11-13T09:03:29.748Z,37.53
2022-11-13T09:05:56.579Z,34.40
2022-11-13T09:08:23.297Z,38.30
2022-11-13T09:10:50.060Z,39.20
2022-11-13T09:13:16.900Z,35.28
2022-11-13T09:15:43.673Z,39.10
2022-11-13T09:18:10.514Z,35.63
2022-11-13T09:20:37.380Z,39.05
2022-11-13T09:23:07.136Z,40.00
2022-11-13T09:25:37.813Z,46.55
2022-11-13T09:28:06.155Z,39.95
2022-11-13T09:30:33.603Z,38.70
2022-11-13T09:33:01.220Z,32.63
2022-11-13T09:35:34.882Z,37.42
2022-11-13T09:38:11.528Z,36.65
2022-11-13T09:40:50.894Z,37.28
2022-11-13T09:43:32.620Z,36.95
2022-11-13T09:46:34.569Z,34.40
2022-11-13T09:49:25.103Z,41.40
2022-11-13T09:51:55.272Z,38.67
2022-11-13T09:54:22.629Z,35.83
2022-11-13T09:56:57.723Z,38.10
2022-11-13T09:59:49.266Z,36.97
2022-11-13T10:02:41.809Z,32.65
2022-11-13T10:05:27.373Z,32.75
2022-11-13T10:08:04.432Z,31.67
2022-11-13T10:10:52.216Z,31.73
2022-11-13T10:13:24.820Z,36.83
2022-11-13T10:15:56.635Z,31.67
2022-11-13T10:18:30.702Z,39.03
2022-11-13T10:21:15.055Z,29.67
2022-11-13T10:23:44.122Z,37.42
2022-11-13T10:26:21.966Z,34.75
2022-11-13T10:29:02.813Z,32.50
2022-11-13T10:31:29.597Z,31.77
2022-11-13T10:33:57.924Z,36.47
2022-11-13T10:36:37.950Z,32.45
2022-11-13T10:39:09.651Z,36.17
2022-11-13T10:41:51.012Z,32.57
2022-11-13T10:44:36.220Z,33.70
2022-11-13T10:47:42.339Z,35.38
2022-11-13T10:50:30.129Z,31.52
2022-11-13T10:52:58.713Z,28.02
2022-11-13T10:55:39.340Z,27.63
2022-11-13T10:58:18.197Z,26.38
2022-11-13T11:00:49.079Z,25.45
2022-11-13T11:03:20.681Z,24.75
2022-11-13T11:05:59.207Z,24.77
2022-11-13T11:08:32.405Z,23.15
2022-11-13T11:11:20.465Z,23.67
2022-11-13T11:13:48.739Z,27.63
2022-11-13T11:16:21.093Z,24.00
2022-11-13T11:18:52.025Z,22.75
2022-11-13T11:21:23.180Z,26.15
2022-11-13T11:23:59.179Z,23.88
2022-11-13T11:26:44.143Z,25.25
2022-11-13T11:29:25.117Z,27.23
2022-11-13T11:32:16.285Z,28.13
2022-11-13T11:34:59.265Z,30.15
2022-11-13T11:37:35.462Z,29.23
2022-11-13T11:40:16.246Z,25.17
2022-11-13T11:42:56.276Z,23.00
2022-11-13T11:45:25.765Z,24.88
2022-11-13T11:47:54.091Z,28.63
2022-11-13T11:50:43.213Z,28.42
2022-11-13T11:53:28.692Z,24.80
2022-11-13T11:55:55.430Z,22.65
2022-11-13T11:58:52.301Z,25.23
2022-11-13T12:01:33.481Z,24.60
2022-11-13T12:04:31.481Z,23.17
2022-11-13T12:07:09.104Z,26.27
2022-11-13T12:10:08.846Z,25.13
2022-11-13T12:12:59.918Z,24.20
2022-11-13T12:15:58.931Z,29.15
2022-11-13T12:19:06.209Z,27.40
2022-11-13T12:21:51.754Z,27.45
2022-11-13T12:25:01.492Z,27.45
2022-11-13T12:27:34.351Z,27.23
2022-11-13T12:30:30.312Z,27.05
2022-11-13T12:33:12.192Z,31.15
2022-11-13T12:35:39.747Z,27.23
2022-11-13T12:38:18.988Z,27.13
2022-11-13T12:41:02.386Z,26.85
2022-11-13T12:43:48.138Z,26.55
2022-11-13T12:46:15.630Z,24.33
2022-11-13T12:48:47.443Z,24.42
2022-11-13T12:51:16.499Z,28.42
2022-11-13T12:53:54.517Z,25.50
2022-11-13T12:56:24.318Z,27.77
2022-11-13T12:59:34.381Z,24.13
2022-11-13T13:02:07.491Z,26.02
2022-11-13T13:04:56.637Z,27.67
2022-11-13T13:07:51.182Z,27.10
2022-11-13T13:10:35.330Z,29.52
2022-11-13T13:13:19.522Z,26.90
2022-11-13T13:15:58.329Z,32.00
2022-11-13T13:18:32.030Z,28.63
2022-11-13T13:21:02.119Z,28.40
2022-11-13T13:23:47.277Z,31.25
2022-11-13T13:26:20.320Z,30.15
2022-11-13T13:29:02.158Z,28.17
2022-11-13T13:31:58.142Z,29.60
2022-11-13T13:34:47.996Z,33.58
2022-11-13T13:37:43.182Z,29.52
2022-11-13T13:40:28.093Z,32.42
2022-11-13T13:43:14.963Z,28.15
2022-11-13T13:46:15.367Z,32.35
2022-11-13T13:48:45.665Z,32.05
2022-11-13T13:51:23.646Z,34.95
2022-11-13T13:53:50.599Z,31.40
2022-11-13T13:56:19.215Z,32.28
2022-11-13T13:58:46.627Z,36.67
2022-11-13T14:01:25.521Z,34.60
2022-11-13T14:04:18.520Z,31.25
2022-11-13T14:12:09.857Z,37.00
2022-11-13T14:14:39.637Z,32.95
2022-11-13T14:17:07.005Z,37.20
2022-11-13T14:19:33.803Z,36.33
2022-11-13T14:22:04.550Z,38.35
2022-11-13T14:25:05.339Z,37.92
2022-11-13T14:27:32.344Z,37.60
2022-11-13T14:30:01.327Z,38.92
2022-11-13T14:32:41.885Z,39.58
2022-11-13T14:35:20.279Z,44.05
2022-11-13T14:37:47.281Z,39.75
2022-11-13T14:40:27.440Z,37.25
2022-11-13T14:42:58.501Z,39.33
2022-11-13T14:45:33.273Z,37.67
2022-11-13T14:48:04.899Z,39.38
2022-11-13T14:50:36.579Z,39.88
2022-11-13T14:53:07.025Z,35.23
2022-11-13T14:55:38.172Z,36.67
2022-11-13T14:58:05.485Z,41.45
2022-11-13T15:00:37.438Z,38.75
2022-11-13T15:03:06.146Z,34.97
2022-11-13T15:05:33.137Z,34.88
2022-11-13T15:08:00.313Z,37.83
2022-11-13T15:10:29.175Z,35.40
2022-11-13T15:12:56.040Z,33.47
2022-11-13T15:15:30.205Z,29.80
2022-11-13T15:17:57.210Z,33.33
2022-11-13T15:20:26.741Z,28.48
2022-11-13T15:22:54.584Z,29.92
2022-11-13T15:25:24.083Z,33.92
2022-11-13T15:27:51.096Z,30.13
2022-11-13T15:30:19.518Z,27.73
2022-11-13T15:32:46.884Z,31.15
2022-11-13T15:35:17.868Z,27.65
2022-11-13T15:37:45.402Z,25.17
2022-11-13T15:40:13.871Z,26.25
2022-11-13T15:42:41.295Z,25.98
2022-11-13T15:45:14.557Z,25.67
2022-11-13T15:47:41.785Z,24.58
2022-11-13T15:50:13.825Z,22.50
2022-11-13T15:52:45.911Z,22.73
2022-11-13T15:55:23.755Z,25.98
2022-11-13T15:57:50.732Z,32.65
2022-11-13T16:00:21.534Z,27.83
2022-11-13T16:02:50.763Z,25.30
2022-11-13T16:05:17.957Z,27.83
2022-11-13T16:07:44.705Z,23.60
2022-11-13T16:10:11.491Z,24.48
2022-11-13T16:12:38.318Z,28.65
2022-11-13T16:15:05.657Z,28.40
2022-11-13T16:17:39.637Z,31.40
2022-11-13T16:20:10.310Z,30.00
2022-11-13T16:22:37.077Z,30.45
2022-11-13T16:25:04.523Z,28.40
2022-11-13T16:27:34.121Z,29.73
2022-11-13T16:30:06.351Z,28.05
2022-11-13T16:32:33.585Z,28.02
2022-11-13T16:35:00.342Z,28.58
2022-11-13T16:37:27.121Z,32.40
2022-11-13T16:39:53.896Z,26.88
2022-11-13T16:42:20.671Z,31.13
2022-11-13T16:44:47.620Z,29.38
2022-11-13T16:47:23.266Z,26.48
2022-11-13T16:49:50.555Z,29.45
2022-11-13T16:52:17.683Z,31.08
2022-11-13T16:54:44.675Z,31.83
2022-11-13T16:57:12.910Z,31.80
2022-11-13T16:59:40.218Z,32.08
2022-11-13T17:02:18.221Z,33.17
2022-11-13T17:04:45.182Z,36.67
2022-11-13T17:07:13.885Z,33.00
2022-11-13T17:09:42.778Z,43.42
2022-11-13T17:12:11.054Z,35.03
2022-11-13T17:14:38.509Z,35.47
2022-11-13T17:17:10.838Z,30.10
2022-11-13T17:19:43.773Z,29.45
2022-11-13T17:22:12.121Z,30.90
2022-11-13T17:24:40.081Z,36.10
2022-11-13T17:27:07.368Z,28.42
2022-11-13T17:29:34.510Z,29.98
2022-11-13T17:32:01.300Z,32.42
2022-11-13T17:34:28.117Z,30.27
2022-11-13T17:36:54.938Z,29.40
2022-11-13T17:39:21.715Z,32.00
2022-11-13T17:41:50.546Z,29.75
2022-11-13T17:44:17.680Z,31.60
2022-11-13T17:46:44.828Z,31.98
2022-11-13T17:49:11.587Z,32.60
2022-11-13T17:51:38.408Z,31.40
2022-11-13T17:54:05.218Z,33.80
2022-11-13T17:56:32.032Z,32.38
2022-11-13T17:58:58.820Z,33.78
2022-11-13T18:01:25.627Z,29.85
2022-11-13T18:03:56.382Z,31.42
2022-11-13T18:06:23.703Z,31.95
2022-11-13T18:08:50.623Z,31.50
2022-11-13T18:11:23.507Z,29.67
2022-11-13T18:13:51.447Z,29.17
2022-11-13T18:16:24.541Z,27.55
2022-11-13T18:18:56.183Z,31.92
2022-11-13T18:21:25.667Z,28.80
2022-11-13T18:24:05.969Z,28.35
2022-11-13T18:26:33.740Z,29.45
2022-11-13T18:29:01.584Z,26.55
2022-11-13T18:31:29.549Z,28.52
2022-11-13T18:33:59.550Z,28.08
2022-11-13T18:36:26.728Z,28.00
2022-11-13T18:38:53.606Z,27.45
2022-11-13T18:41:21.948Z,29.00
2022-11-13T18:43:51.504Z,26.67
2022-11-13T18:46:21.514Z,28.00
2022-11-13T18:48:49.181Z,27.27
2022-11-13T18:51:21.935Z,26.05
2022-11-13T18:53:50.120Z,28.23
2022-11-13T18:56:22.900Z,25.08
2022-11-13T18:58:51.243Z,24.42
2022-11-13T19:01:30.518Z,26.15
2022-11-13T19:04:21.586Z,26.85
2022-11-13T19:06:48.645Z,26.45
2022-11-13T19:09:16.934Z,26.77
2022-11-13T19:11:44.924Z,23.63
2022-11-13T19:14:16.859Z,25.83
2022-11-13T19:16:43.723Z,26.00
2022-11-13T19:19:19.721Z,25.77
2022-11-13T19:21:47.053Z,26.15
2022-11-13T19:24:14.962Z,27.02
2022-11-13T19:26:43.347Z,27.50
2022-11-13T19:29:10.640Z,28.67
2022-11-13T19:31:37.497Z,25.55
2022-11-13T19:34:07.562Z,26.73
2022-11-13T19:36:35.070Z,25.02
2022-11-13T19:39:02.069Z,30.38
2022-11-13T19:41:29.696Z,29.33
2022-11-13T19:43:59.531Z,33.15
2022-11-13T19:46:26.838Z,33.40
2022-11-13T19:48:53.619Z,30.42
2022-11-13T19:51:22.920Z,34.05
2022-11-13T19:53:54.677Z,34.78
2022-11-13T19:56:22.861Z,32.83
2022-11-13T19:58:50.874Z,32.55
2022-11-13T20:01:20.071Z,30.25
2022-11-13T20:03:47.283Z,31.10
2022-11-13T20:06:16.917Z,29.08
2022-11-13T20:08:44.047Z,31.38
2022-11-13T20:11:13.466Z,34.50
2022-11-13T20:13:41.839Z,32.38
2022-11-13T20:16:10.969Z,31.88
2022-11-13T20:18:38.024Z,35.00
2022-11-13T20:21:05.609Z,31.38
2022-11-13T20:23:32.626Z,35.78
2022-11-13T20:26:12.013Z,34.40
2022-11-13T20:28:38.745Z,36.03
2022-11-13T20:31:16.322Z,40.42
2022-11-13T20:33:43.620Z,35.78
2022-11-13T20:36:10.464Z,38.50
2022-11-13T20:38:37.476Z,32.53
2022-11-13T20:41:05.908Z,38.05
2022-11-13T20:43:32.835Z,33.65
2022-11-13T20:46:13.725Z,41.95
2022-11-13T20:48:40.628Z,34.72
2022-11-13T20:51:09.098Z,55.40
2022-11-13T20:53:35.875Z,58.25
2022-11-13T20:56:02.577Z,71.85
2022-11-13T20:58:29.733Z,50.67
2022-11-13T21:01:05.271Z,37.65
2022-11-13T21:03:37.131Z,42.15
2022-11-13T21:06:07.785Z,42.92
2022-11-13T21:08:34.532Z,40.35
2022-11-13T21:11:02.396Z,41.33
2022-11-13T21:13:29.606Z,42.33
2022-11-13T21:15:56.360Z,39.55
2022-11-13T21:18:23.181Z,40.25
2022-11-13T21:20:49.999Z,40.85
2022-11-13T21:23:17.125Z,42.88
2022-11-13T21:25:44.032Z,38.13
2022-11-13T21:28:10.911Z,36.65
2022-11-13T21:30:37.581Z,38.65
2022-11-13T21:33:04.305Z,34.40
2022-11-13T21:35:31.179Z,36.38
2022-11-13T21:37:57.932Z,42.40
2022-11-13T21:40:24.658Z,38.25
2022-11-13T21:42:51.529Z,38.42
2022-11-13T21:45:18.207Z,37.85
2022-11-13T21:47:44.882Z,38.75
2022-11-13T21:50:11.698Z,38.88
2022-11-13T21:52:38.719Z,34.33
2022-11-13T21:55:05.957Z,36.20
2022-11-13T21:57:32.650Z,37.25
2022-11-13T21:59:59.376Z,36.42
2022-11-13T22:02:26.239Z,39.67
2022-11-13T22:04:53.120Z,39.47
2022-11-13T22:07:19.949Z,40.67
2022-11-13T22:09:46.742Z,38.15
2022-11-13T22:12:14.256Z,39.95
2022-11-13T22:14:41.016Z,40.63
2022-11-13T22:17:07.704Z,38.20
2022-11-13T22:19:36.344Z,35.75
2022-11-13T22:22:03.290Z,35.03
2022-11-13T22:24:30.800Z,38.25
2022-11-13T22:26:57.503Z,40.10
2022-11-13T22:29:24.209Z,36.22
2022-11-13T22:31:50.974Z,38.78
2022-11-13T22:34:18.236Z,38.03
2022-11-13T22:36:45.019Z,38.70
2022-11-13T22:39:11.720Z,40.85
2022-11-13T22:41:38.410Z,39.78
2022-11-13T22:44:07.353Z,42.50
2022-11-13T22:46:35.873Z,37.75
2022-11-13T22:49:04.963Z,37.65
2022-11-13T22:51:41.559Z,42.72
2022-11-13T22:54:12.701Z,39.42
2022-11-13T22:56:41.194Z,40.40
2022-11-13T22:59:10.681Z,37.90
2022-11-13T23:01:39.384Z,37.53
2022-11-13T23:04:09.646Z,38.15
2022-11-13T23:06:36.610Z,47.08
2022-11-13T23:09:04.520Z,38.47
2022-11-13T23:11:34.509Z,39.45
2022-11-13T23:14:03.644Z,44.35
2022-11-13T23:16:31.991Z,40.35
2022-11-13T23:19:00.222Z,43.15
2022-11-13T23:21:28.569Z,39.78
2022-11-13T23:23:56.746Z,41.47
2022-11-13T23:26:24.790Z,40.20
2022-11-13T23:28:51.597Z,37.00
2022-11-13T23:31:18.569Z,36.97
2022-11-13T23:33:45.592Z,41.38
2022-11-13T23:36:14.296Z,39.92
2022-11-13T23:38:41.739Z,38.90
2022-11-13T23:41:10.449Z,43.50
2022-11-13T23:44:07.195Z,39.53
2022-11-13T23:46:24.041Z,42.70
2022-11-13T23:48:50.732Z,38.45
2022-11-13T23:51:17.464Z,38.47
2022-11-13T23:53:44.165Z,40.83
2022-11-13T23:56:11.269Z,39.60
2022-11-13T23:58:38.021Z,40.75
